Terminal Aerodrome Forecast
Issued by NWS

Home | Current Version | Previous Version | Text Only | Print | Product List | Glossary On
Versions: 1 2 3 4 5 6 7 8 9 10 11 12 13 14 15 16
000
FTUS43 KICT 180500
TAFCNU
TAF
KCNU 180520Z 1806/1906 10008KT P6SM SCT250
     FM180800 35015G25KT P6SM VCTS BKN060CB
     FM181100 10007KT P6SM SCT060 BKN250
     FM181500 16008KT P6SM SCT250
     FM181800 19012KT P6SM SCT250=

USA.gov is the U.S. government's official web portal to all federal, state and local government web resources and services.